Stateburg, South Carolina
Current Conditions -  °F | °C
As of 8:35 PM on Monday 22 Dec 2014 (Local Time) from KSMS Reporting Station
Haze Haze  
Wind Chill: 38°   Ceiling: 400
Heat Index: 43°   Visibility: 1.7mi
Dew Point: 43°   Wind: 8mph
Humidity: 100%   Direction: 30°NNE
Pressure: 30.02"   Gusts: NA
Location:  33.9242°N, 80.1986°W
Report Text: KSMS 230135Z AUTO 03007KT 1 3/4SM BR OVC004 06/06 A3002 RMK AO2
Loading
Personal Weather Stations






























Interactive Weather Map New forecast layout! Learn more

10-Day Weather Forecast

Advertisements
Track Severe Weather on mobile